Station: Low Isles  

  Atmospheric Gas Attenuation - ITU Rec 676-11   ----------------- dB/100km -----------------
Date Time Temp RH % AH g/m3 Dew Point Wind Direction Speed kph Gust kph Barometer mB Rainfall Since 9am 24GHz 47GHz 76GHz 122GHz 134GHz 241GHz
08/05 12:30 26.6 81 20.39 23.1 41 48 1014.1 0 43.7 41.9 82.2 217.5 241.5 839.1
08/05 12:20 26.6 79 19.89 22.7 39 44 1014.2 0 42.7 41.0 79.8 211.2 233.8 812.2
08/05 12:10 26.5 76 19.03 21.9 39 46 1014.4 0 40.9 39.4 75.9 200.7 220.9 767.6
08/05 12:00 26.7 79 20 22.8 41 48 1014.6 0 42.9 41.2 80.2 212.3 235.2 817.2
08/05 11:50 26.7 77 19.49 22.3 44 48 1014.8 0 41.8 40.2 77.9 206.0 227.4 790.1
08/05 11:40 26.5 77 19.28 22.1 43 46 1014.8 0 41.4 39.9 77.1 203.9 224.8 781.0
08/05 11:30 26.4 80 19.92 22.7 35 43 1014.9 0 42.8 41.2 80.2 212.2 235.0 816.3
08/05 11:20 26.2 82 20.19 22.9 37 39 1015 0 43.3 41.8 81.7 216.2 239.8 833.2
08/05 11:10 26.2 81 19.94 22.7 35 39 1015.2 0 42.8 41.3 80.5 213.1 235.9 819.7
08/05 11:00 26 80 19.48 22.3 39 44 1015.3 0 41.9 40.6 78.6 207.8 229.5 797.2
08/05 10:50 26.2 82 20.19 22.9 37 43 1015.4 0 43.3 41.8 81.7 216.3 239.9 833.4
08/05 10:40 26.1 81 19.83 22.6 39 41 1015.5 0 42.6 41.2 80.1 212.0 234.6 815.0
08/05 10:30 26 81 19.72 22.5 35 41 1015.6 0 42.4 41.0 79.7 210.9 233.2 810.2
08/05 10:20 26 80 19.48 22.3 37 39 1015.6 0 41.9 40.6 78.6 207.9 229.5 797.3
08/05 10:10 26 80 19.48 22.3 37 41 1015.7 0 41.9 40.6 78.6 207.9 229.5 797.4
08/05 10:00 26 80 19.48 22.3 33 41 1015.8 0 41.9 40.6 78.6 207.9 229.5 797.4
08/05 09:50 25.9 78 18.88 21.8 37 41 1015.8 0 40.6 39.5 75.9 200.7 220.6 766.5
08/05 09:40 26 80 19.48 22.3 35 39 1015.8 0 41.9 40.6 78.6 207.9 229.5 797.4
08/05 09:30 25.9 79 19.13 22 39 44 1015.8 0 41.1 40.0 77.0 203.8 224.5 779.8
08/05 09:20 25.8 80 19.26 22.1 33 37 1015.7 0 41.4 40.3 77.8 205.7 226.7 787.7
08/05 09:10 25.7 80 19.15 22 33 37 1015.5 0 41.2 40.1 77.3 204.5 225.3 782.7
08/05 09:00 25.7 81 19.39 22.2 30 41 1015.5 0 41.7 40.5 78.5 207.6 229.0 795.6
08/05 08:50 25.6 81 19.28 22.1 24 26 1015.4 0 41.5 40.4 78.0 206.4 227.6 790.7
08/05 08:40 25.6 81 19.28 22.1 28 32 1015.3 0 41.5 40.4 78.0 206.4 227.6 790.6
08/05 08:30 25.5 80 18.94 21.8 26 32 1015.1 0 40.8 39.8 76.5 202.4 222.6 773.4
08/05 08:20 25.4 80 18.83 21.7 26 28 1015 0 40.5 39.6 76.1 201.3 221.2 768.5
08/05 08:10 25.4 80 18.83 21.7 32 35 1014.8 0 40.5 39.6 76.1 201.2 221.2 768.4
08/05 08:00 25.4 81 19.07 21.9 30 33 1014.8 0 41.1 40.1 77.2 204.2 224.9 781.2
08/05 07:50 25.5 80 18.94 21.8 30 32 1014.7 0 40.8 39.8 76.5 202.3 222.6 773.1
08/05 07:40 25.3 78 18.26 21.2 30 33 1014.6 0 39.3 38.6 73.5 194.4 212.8 739.1
08/05 07:30 25.2 78 18.16 21.1 28 32 1014.4 0 39.1 38.4 73.1 193.4 211.5 734.7
08/05 07:20 25.1 77 17.82 20.8 30 32 1014.3 0 38.4 37.8 71.7 189.5 206.7 717.8
08/05 07:10 25.1 79 18.29 21.2 28 32 1014.2 0 39.4 38.7 73.8 195.2 213.8 742.4
08/05 07:00 25 79 18.19 21.1 28 37 1014.1 0 39.2 38.6 73.4 194.2 212.5 738.1
08/05 06:50 25.2 82 19.09 21.9 24 28 1013.9 0 41.1 40.1 77.5 204.9 225.7 783.8
08/05 06:40 25 79 18.19 21.1 24 26 1013.8 0 39.2 38.5 73.4 194.2 212.5 737.9
08/05 06:30 25.1 80 18.52 21.4 26 32 1013.8 0 39.9 39.1 74.9 198.0 217.2 754.4
08/05 06:20 25.2 81 18.86 21.7 28 30 1013.8 0 40.6 39.7 76.4 202.0 222.1 771.5
08/05 06:10 25.2 80 18.62 21.5 28 30 1013.7 0 40.1 39.2 75.2 199.0 218.4 758.6
08/05 06:00 25.2 80 18.62 21.5 30 35 1013.7 0 40.1 39.2 75.2 199.0 218.4 758.6
08/05 05:50 25.1 80 18.52 21.4 28 30 1013.5 0 39.9 39.1 74.8 198.0 217.2 754.2
08/05 05:40 25.2 80 18.62 21.5 24 26 1013.5 0 40.1 39.2 75.2 199.0 218.4 758.5
08/05 05:30 25.1 80 18.52 21.4 24 30 1013.5 0 39.9 39.1 74.8 198.0 217.2 754.2
08/05 05:20 25.1 80 18.52 21.4 26 28 1013.3 0 39.9 39.1 74.8 197.9 217.1 754.1
08/05 05:10 25.1 81 18.75 21.6 20 24 1013.2 0 40.4 39.5 75.9 200.8 220.6 766.3
08/05 05:00 24.9 79 18.08 21 24 28 1013.1 0 39.0 38.4 73.0 193.0 211.0 732.8
08/05 04:50 25 79 18.19 21.1 20 22 1013.1 0 39.2 38.5 73.4 194.1 212.4 737.6
08/05 04:40 24.9 78 17.85 20.8 24 26 1013 0 38.5 37.9 71.9 190.1 207.5 720.6
08/05 04:30 24.9 79 18.08 21 22 26 1013 0 39.0 38.3 73.0 193.0 211.0 732.7
08/05 04:20 25 78 17.96 20.9 24 26 1013 0 38.8 38.1 72.3 191.2 208.9 725.4
08/05 04:10 24.9 77 17.63 20.6 24 24 1012.9 0 38.1 37.5 70.9 187.5 204.2 709.1
08/05 04:00 25 76 17.49 20.5 24 28 1012.8 0 37.8 37.2 70.2 185.5 201.8 700.9
08/05 03:50 24.9 76 17.4 20.4 24 26 1012.8 0 37.6 37.1 69.8 184.6 200.8 697.2
08/05 03:40 25 78 17.96 20.9 20 20 1012.9 0 38.8 38.1 72.3 191.2 208.9 725.4
08/05 03:30 25 77 17.72 20.7 22 28 1012.9 0 38.2 37.6 71.2 188.3 205.3 712.9
08/05 03:20 25.1 78 18.06 21 24 26 1013 0 39.0 38.2 72.7 192.2 210.1 729.7
08/05 03:10 25 77 17.72 20.7 24 26 1013.1 0 38.2 37.6 71.2 188.3 205.3 713.0
08/05 03:00 24.9 79 18.08 21 24 30 1013 0 39.0 38.3 73.0 193.0 211.0 732.7
08/05 02:50 25 79 18.19 21.1 22 24 1013 0 39.2 38.5 73.4 194.1 212.4 737.5
08/05 02:40 25 78 17.96 20.9 26 28 1013 0 38.8 38.1 72.3 191.2 208.9 725.4
08/05 02:30 25.1 79 18.29 21.2 26 30 1013.1 0 39.4 38.7 73.8 195.1 213.6 741.9
08/05 02:20 25.1 82 18.98 21.8 24 28 1013.2 0 40.9 40.0 77.0 203.7 224.2 778.6
08/05 02:10 25 81 18.65 21.5 26 28 1013.2 0 40.2 39.4 75.5 199.8 219.4 762.0
08/05 02:00 25.1 81 18.75 21.6 28 33 1013.3 0 40.4 39.5 75.9 200.8 220.6 766.4
08/05 01:50 25.1 83 19.21 22 24 26 1013.4 0 41.4 40.4 78.1 206.6 227.7 791.1
08/05 01:40 25.1 82 18.98 21.8 26 28 1013.4 0 40.9 40.0 77.0 203.7 224.2 778.7
08/05 01:30 25.1 81 18.75 21.6 26 30 1013.4 0 40.4 39.5 75.9 200.8 220.7 766.4
08/05 01:20 25.1 81 18.75 21.6 24 26 1013.5 0 40.4 39.5 75.9 200.8 220.7 766.5
08/05 01:10 25.1 81 18.75 21.6 24 26 1013.6 0 40.4 39.5 75.9 200.8 220.7 766.5
08/05 01:00 25.1 79 18.29 21.2 22 24 1013.7 0 39.4 38.7 73.8 195.2 213.7 742.2
08/05 00:50 25.1 80 18.52 21.4 22 24 1013.8 0 39.9 39.1 74.9 198.0 217.2 754.4
08/05 00:40 25.1 80 18.52 21.4 20 22 1013.8 0 39.9 39.1 74.9 198.0 217.2 754.4
08/05 00:30 25.2 81 18.86 21.7 24 28 1013.9 0 40.6 39.7 76.4 202.0 222.1 771.5
08/05 00:20 25.1 80 18.52 21.4 24 26 1014 0 39.9 39.1 74.9 198.0 217.2 754.5
08/05 00:10 25.2 80 18.62 21.5 19 20 1014.1 0 40.1 39.3 75.3 199.0 218.5 758.8
08/05 00:00 25.2 80 18.62 21.5 20 24 1014.1 0 40.1 39.3 75.3 199.0 218.5 758.8
07/05 23:50 25 80 18.42 21.3 24 28 1014.1 0 39.7 39.0 74.5 197.1 216.0 750.2
07/05 23:40 25.2 81 18.86 21.7 22 24 1014.2 0 40.6 39.7 76.4 202.1 222.2 771.7
07/05 23:30 25.1 81 18.75 21.6 20 24 1014.2 0 40.4 39.6 76.0 200.9 220.8 766.8
07/05 23:20 25.2 81 18.86 21.7 19 20 1014.3 0 40.6 39.7 76.4 202.1 222.2 771.7
07/05 23:10 25.2 81 18.86 21.7 20 22 1014.2 0 40.6 39.7 76.4 202.1 222.2 771.7
07/05 23:00 25.2 81 18.86 21.7 22 30 1014.3 0 40.6 39.7 76.4 202.1 222.2 771.7
07/05 22:50 25.3 81 18.96 21.8 24 26 1014.3 0 40.8 39.9 76.8 203.1 223.4 776.1
07/05 22:40 25.4 83 19.54 22.3 22 24 1014.3 0 42.1 40.9 79.4 210.1 232.1 806.2
07/05 22:30 25.3 83 19.43 22.2 32 37 1014.3 0 41.8 40.8 79.0 209.0 230.7 801.3
07/05 22:20 25.4 83 19.54 22.3 28 32 1014.6 0 42.1 40.9 79.4 210.1 232.1 806.4
07/05 22:10 25.3 83 19.43 22.2 32 33 1014.8 0 41.8 40.8 79.0 209.1 230.8 801.6
07/05 22:00 25.4 83 19.54 22.3 32 39 1014.8 0 42.1 40.9 79.4 210.2 232.2 806.5
07/05 21:50 25.5 83 19.65 22.4 32 35 1014.8 0 42.3 41.1 79.9 211.3 233.6 811.4
07/05 21:40 25.6 83 19.76 22.5 30 33 1014.8 0 42.5 41.3 80.3 212.4 235.0 816.3
07/05 21:30 25.6 82 19.52 22.3 33 37 1014.9 0 42.0 40.8 79.1 209.4 231.3 803.3
07/05 21:20 25.5 81 19.18 22 33 35 1014.9 0 41.3 40.2 77.6 205.4 226.3 786.1
07/05 21:10 25.7 82 19.63 22.4 30 32 1015 0 42.2 41.0 79.6 210.5 232.7 808.3
07/05 21:00 25.7 81 19.39 22.2 35 41 1015.1 0 41.7 40.5 78.4 207.5 229.0 795.4
07/05 20:50 25.7 81 19.39 22.2 35 39 1015 0 41.7 40.5 78.4 207.5 228.9 795.3
07/05 20:40 25.6 80 19.05 21.9 33 37 1014.9 0 41.0 39.9 76.9 203.5 224.0 778.1
07/05 20:30 25.7 81 19.39 22.2 33 39 1014.9 0 41.7 40.5 78.4 207.5 228.9 795.3
07/05 20:20 25.9 82 19.85 22.6 33 37 1014.8 0 42.7 41.3 80.4 212.7 235.4 817.9
07/05 20:10 25.7 80 19.15 22 33 39 1014.7 0 41.2 40.1 77.3 204.4 225.2 782.3
07/05 20:00 25.9 82 19.85 22.6 35 41 1014.6 0 42.7 41.3 80.4 212.7 235.4 817.8

Last Refresh: 08-May-2026 12:07:37

Bureau of Meteorology